sensor_id;sensor_type;location;lat;lon;timestamp;P1;durP1;ratioP1;P2;durP2;ratioP2
55224;SDS011;41091;49.400;8.684;2023-07-08T00:00:15;10.05;;;5.03;;
55224;SDS011;41091;49.400;8.684;2023-07-08T00:02:47;7.75;;;5.38;;
55224;SDS011;41091;49.400;8.684;2023-07-08T00:05:14;6.53;;;5.50;;
55224;SDS011;41091;49.400;8.684;2023-07-08T00:07:42;6.70;;;5.50;;
55224;SDS011;41091;49.400;8.684;2023-07-08T00:10:12;6.85;;;4.75;;
55224;SDS011;41091;49.400;8.684;2023-07-08T00:12:45;8.30;;;5.32;;
55224;SDS011;41091;49.400;8.684;2023-07-08T00:15:12;6.45;;;4.88;;
55224;SDS011;41091;49.400;8.684;2023-07-08T00:17:37;6.38;;;5.18;;
55224;SDS011;41091;49.400;8.684;2023-07-08T00:20:17;5.30;;;4.47;;
55224;SDS011;41091;49.400;8.684;2023-07-08T00:22:47;8.52;;;4.70;;
55224;SDS011;41091;49.400;8.684;2023-07-08T00:25:17;9.95;;;6.28;;
55224;SDS011;41091;49.400;8.684;2023-07-08T00:30:28;5.20;;;4.70;;
55224;SDS011;41091;49.400;8.684;2023-07-08T00:32:57;8.10;;;5.10;;
55224;SDS011;41091;49.400;8.684;2023-07-08T00:38:01;6.30;;;5.15;;
55224;SDS011;41091;49.400;8.684;2023-07-08T00:40:28;10.77;;;5.07;;
55224;SDS011;41091;49.400;8.684;2023-07-08T00:42:55;5.43;;;4.50;;
55224;SDS011;41091;49.400;8.684;2023-07-08T00:45:38;6.50;;;5.20;;
55224;SDS011;41091;49.400;8.684;2023-07-08T00:50:53;8.48;;;5.47;;
55224;SDS011;41091;49.400;8.684;2023-07-08T00:53:33;5.60;;;5.10;;
55224;SDS011;41091;49.400;8.684;2023-07-08T00:56:08;7.55;;;4.65;;
55224;SDS011;41091;49.400;8.684;2023-07-08T00:58:43;5.15;;;4.55;;
55224;SDS011;41091;49.400;8.684;2023-07-08T01:01:14;15.07;;;5.97;;
55224;SDS011;41091;49.400;8.684;2023-07-08T01:03:43;8.55;;;4.03;;
55224;SDS011;41091;49.400;8.684;2023-07-08T01:06:17;9.23;;;5.70;;
55224;SDS011;41091;49.400;8.684;2023-07-08T01:08:45;5.68;;;5.15;;
55224;SDS011;41091;49.400;8.684;2023-07-08T01:11:12;13.52;;;4.75;;
55224;SDS011;41091;49.400;8.684;2023-07-08T01:13:40;6.28;;;4.82;;
55224;SDS011;41091;49.400;8.684;2023-07-08T01:16:06;6.93;;;4.80;;
55224;SDS011;41091;49.400;8.684;2023-07-08T01:18:32;10.20;;;4.80;;
55224;SDS011;41091;49.400;8.684;2023-07-08T01:21:03;6.75;;;4.60;;
55224;SDS011;41091;49.400;8.684;2023-07-08T01:23:33;5.65;;;4.90;;
55224;SDS011;41091;49.400;8.684;2023-07-08T01:25:59;5.00;;;4.28;;
55224;SDS011;41091;49.400;8.684;2023-07-08T01:28:26;9.40;;;5.10;;
55224;SDS011;41091;49.400;8.684;2023-07-08T01:30:54;5.75;;;4.50;;
55224;SDS011;41091;49.400;8.684;2023-07-08T01:33:20;5.32;;;4.82;;
55224;SDS011;41091;49.400;8.684;2023-07-08T01:35:50;11.75;;;5.72;;
55224;SDS011;41091;49.400;8.684;2023-07-08T01:38:21;5.38;;;4.82;;
55224;SDS011;41091;49.400;8.684;2023-07-08T01:40:56;5.55;;;4.60;;
55224;SDS011;41091;49.400;8.684;2023-07-08T01:43:22;11.95;;;5.13;;
55224;SDS011;41091;49.400;8.684;2023-07-08T01:45:47;6.68;;;5.03;;
55224;SDS011;41091;49.400;8.684;2023-07-08T01:48:15;8.05;;;4.63;;
55224;SDS011;41091;49.400;8.684;2023-07-08T01:50:45;6.97;;;4.70;;
55224;SDS011;41091;49.400;8.684;2023-07-08T01:53:18;6.17;;;5.23;;
55224;SDS011;41091;49.400;8.684;2023-07-08T01:55:45;11.65;;;5.30;;
55224;SDS011;41091;49.400;8.684;2023-07-08T01:58:15;9.40;;;4.78;;
55224;SDS011;41091;49.400;8.684;2023-07-08T02:00:43;7.47;;;5.03;;
55224;SDS011;41091;49.400;8.684;2023-07-08T02:03:08;6.85;;;5.03;;
55224;SDS011;41091;49.400;8.684;2023-07-08T02:05:34;5.85;;;4.55;;
55224;SDS011;41091;49.400;8.684;2023-07-08T02:08:04;4.80;;;4.38;;
55224;SDS011;41091;49.400;8.684;2023-07-08T02:10:30;6.97;;;4.75;;
55224;SDS011;41091;49.400;8.684;2023-07-08T02:12:57;5.28;;;4.72;;
55224;SDS011;41091;49.400;8.684;2023-07-08T02:15:23;5.43;;;4.65;;
55224;SDS011;41091;49.400;8.684;2023-07-08T02:17:48;10.23;;;4.82;;
55224;SDS011;41091;49.400;8.684;2023-07-08T02:20:16;6.55;;;5.32;;
55224;SDS011;41091;49.400;8.684;2023-07-08T02:22:41;7.32;;;4.60;;
55224;SDS011;41091;49.400;8.684;2023-07-08T02:25:06;10.95;;;5.28;;
55224;SDS011;41091;49.400;8.684;2023-07-08T02:27:34;8.73;;;5.47;;
55224;SDS011;41091;49.400;8.684;2023-07-08T02:29:59;6.45;;;5.20;;
55224;SDS011;41091;49.400;8.684;2023-07-08T02:32:25;6.93;;;5.00;;
55224;SDS011;41091;49.400;8.684;2023-07-08T02:34:51;7.28;;;4.20;;
55224;SDS011;41091;49.400;8.684;2023-07-08T02:37:18;6.53;;;4.75;;
55224;SDS011;41091;49.400;8.684;2023-07-08T02:39:46;6.22;;;4.78;;
55224;SDS011;41091;49.400;8.684;2023-07-08T02:42:11;5.38;;;4.70;;
55224;SDS011;41091;49.400;8.684;2023-07-08T02:44:37;5.57;;;5.00;;
55224;SDS011;41091;49.400;8.684;2023-07-08T02:47:04;7.32;;;5.28;;
55224;SDS011;41091;49.400;8.684;2023-07-08T02:49:29;5.97;;;4.90;;
55224;SDS011;41091;49.400;8.684;2023-07-08T02:51:55;5.80;;;5.20;;
55224;SDS011;41091;49.400;8.684;2023-07-08T02:54:20;5.32;;;4.80;;
55224;SDS011;41091;49.400;8.684;2023-07-08T02:56:46;11.50;;;5.80;;
55224;SDS011;41091;49.400;8.684;2023-07-08T02:59:16;8.73;;;5.53;;
55224;SDS011;41091;49.400;8.684;2023-07-08T03:01:43;8.07;;;5.90;;
55224;SDS011;41091;49.400;8.684;2023-07-08T03:04:11;9.07;;;5.28;;
55224;SDS011;41091;49.400;8.684;2023-07-08T03:06:44;5.30;;;4.80;;
55224;SDS011;41091;49.400;8.684;2023-07-08T03:09:12;7.43;;;5.07;;
55224;SDS011;41091;49.400;8.684;2023-07-08T03:11:38;6.30;;;5.55;;
55224;SDS011;41091;49.400;8.684;2023-07-08T03:14:04;7.50;;;5.15;;
55224;SDS011;41091;49.400;8.684;2023-07-08T03:16:32;6.10;;;5.45;;
55224;SDS011;41091;49.400;8.684;2023-07-08T03:18:57;9.25;;;5.55;;
55224;SDS011;41091;49.400;8.684;2023-07-08T03:21:23;8.00;;;5.63;;
55224;SDS011;41091;49.400;8.684;2023-07-08T03:23:49;9.10;;;6.22;;
55224;SDS011;41091;49.400;8.684;2023-07-08T03:26:21;6.47;;;5.45;;
55224;SDS011;41091;49.400;8.684;2023-07-08T03:28:48;9.20;;;5.60;;
55224;SDS011;41091;49.400;8.684;2023-07-08T03:31:16;9.73;;;5.05;;
55224;SDS011;41091;49.400;8.684;2023-07-08T03:33:42;5.93;;;5.32;;
55224;SDS011;41091;49.400;8.684;2023-07-08T03:36:09;7.68;;;5.32;;
55224;SDS011;41091;49.400;8.684;2023-07-08T03:38:38;5.32;;;4.43;;
55224;SDS011;41091;49.400;8.684;2023-07-08T03:41:04;6.47;;;5.45;;
55224;SDS011;41091;49.400;8.684;2023-07-08T03:43:29;6.80;;;5.18;;
55224;SDS011;41091;49.400;8.684;2023-07-08T03:45:55;6.32;;;5.18;;
55224;SDS011;41091;49.400;8.684;2023-07-08T03:48:23;6.18;;;4.75;;
55224;SDS011;41091;49.400;8.684;2023-07-08T03:50:48;5.47;;;4.95;;
55224;SDS011;41091;49.400;8.684;2023-07-08T03:53:16;7.03;;;5.00;;
55224;SDS011;41091;49.400;8.684;2023-07-08T03:55:43;5.63;;;4.97;;
55224;SDS011;41091;49.400;8.684;2023-07-08T03:58:11;5.25;;;4.75;;
55224;SDS011;41091;49.400;8.684;2023-07-08T04:00:36;7.50;;;5.13;;
55224;SDS011;41091;49.400;8.684;2023-07-08T04:03:04;7.82;;;5.82;;
55224;SDS011;41091;49.400;8.684;2023-07-08T04:05:29;13.18;;;5.70;;
55224;SDS011;41091;49.400;8.684;2023-07-08T04:07:55;6.03;;;5.43;;
55224;SDS011;41091;49.400;8.684;2023-07-08T04:10:20;8.88;;;5.75;;
55224;SDS011;41091;49.400;8.684;2023-07-08T04:12:45;5.35;;;4.85;;
55224;SDS011;41091;49.400;8.684;2023-07-08T04:15:11;6.32;;;5.22;;
55224;SDS011;41091;49.400;8.684;2023-07-08T04:17:44;6.63;;;5.35;;
55224;SDS011;41091;49.400;8.684;2023-07-08T04:20:13;8.85;;;4.68;;
55224;SDS011;41091;49.400;8.684;2023-07-08T04:22:45;8.88;;;5.20;;
55224;SDS011;41091;49.400;8.684;2023-07-08T04:25:11;10.65;;;5.13;;
55224;SDS011;41091;49.400;8.684;2023-07-08T04:27:39;6.05;;;5.00;;
55224;SDS011;41091;49.400;8.684;2023-07-08T04:30:05;5.78;;;5.18;;
55224;SDS011;41091;49.400;8.684;2023-07-08T04:32:31;7.47;;;5.18;;
55224;SDS011;41091;49.400;8.684;2023-07-08T04:34:59;6.72;;;5.03;;
55224;SDS011;41091;49.400;8.684;2023-07-08T04:37:26;9.10;;;5.45;;
55224;SDS011;41091;49.400;8.684;2023-07-08T04:39:52;6.38;;;5.35;;
55224;SDS011;41091;49.400;8.684;2023-07-08T04:42:20;8.32;;;5.10;;
55224;SDS011;41091;49.400;8.684;2023-07-08T04:44:47;9.57;;;5.70;;
55224;SDS011;41091;49.400;8.684;2023-07-08T04:47:17;7.97;;;4.68;;
55224;SDS011;41091;49.400;8.684;2023-07-08T04:49:45;6.57;;;5.03;;
55224;SDS011;41091;49.400;8.684;2023-07-08T04:52:12;8.80;;;5.22;;
55224;SDS011;41091;49.400;8.684;2023-07-08T04:54:42;6.75;;;5.10;;
55224;SDS011;41091;49.400;8.684;2023-07-08T04:57:12;7.95;;;5.03;;
55224;SDS011;41091;49.400;8.684;2023-07-08T04:59:37;5.18;;;4.68;;
55224;SDS011;41091;49.400;8.684;2023-07-08T05:02:03;9.38;;;4.97;;
55224;SDS011;41091;49.400;8.684;2023-07-08T05:04:30;7.75;;;4.82;;
55224;SDS011;41091;49.400;8.684;2023-07-08T05:06:56;7.15;;;4.82;;
55224;SDS011;41091;49.400;8.684;2023-07-08T05:09:21;6.35;;;5.45;;
55224;SDS011;41091;49.400;8.684;2023-07-08T05:11:48;10.38;;;4.85;;
55224;SDS011;41091;49.400;8.684;2023-07-08T05:14:16;8.38;;;5.78;;
55224;SDS011;41091;49.400;8.684;2023-07-08T05:16:41;6.85;;;5.03;;
55224;SDS011;41091;49.400;8.684;2023-07-08T05:19:07;9.63;;;5.28;;
55224;SDS011;41091;49.400;8.684;2023-07-08T05:21:32;7.15;;;4.72;;
55224;SDS011;41091;49.400;8.684;2023-07-08T05:24:05;6.03;;;4.60;;
55224;SDS011;41091;49.400;8.684;2023-07-08T05:26:31;9.18;;;5.25;;
55224;SDS011;41091;49.400;8.684;2023-07-08T05:28:57;9.80;;;5.05;;
55224;SDS011;41091;49.400;8.684;2023-07-08T05:31:22;20.58;;;6.60;;
55224;SDS011;41091;49.400;8.684;2023-07-08T05:33:47;21.15;;;6.28;;
55224;SDS011;41091;49.400;8.684;2023-07-08T05:36:15;30.25;;;8.07;;
55224;SDS011;41091;49.400;8.684;2023-07-08T05:38:41;12.02;;;5.07;;
55224;SDS011;41091;49.400;8.684;2023-07-08T05:41:08;10.32;;;4.80;;
55224;SDS011;41091;49.400;8.684;2023-07-08T05:43:34;10.00;;;5.63;;
55224;SDS011;41091;49.400;8.684;2023-07-08T05:45:59;5.82;;;4.60;;
55224;SDS011;41091;49.400;8.684;2023-07-08T05:48:26;8.27;;;5.07;;
55224;SDS011;41091;49.400;8.684;2023-07-08T05:50:51;6.20;;;5.03;;
55224;SDS011;41091;49.400;8.684;2023-07-08T05:53:18;24.17;;;6.10;;
55224;SDS011;41091;49.400;8.684;2023-07-08T05:55:43;30.88;;;7.18;;
55224;SDS011;41091;49.400;8.684;2023-07-08T05:58:09;24.63;;;6.50;;
55224;SDS011;41091;49.400;8.684;2023-07-08T06:00:35;19.20;;;6.85;;
55224;SDS011;41091;49.400;8.684;2023-07-08T06:03:00;15.80;;;6.05;;
55224;SDS011;41091;49.400;8.684;2023-07-08T06:05:28;23.77;;;6.38;;
55224;SDS011;41091;49.400;8.684;2023-07-08T06:07:58;9.90;;;5.47;;
55224;SDS011;41091;49.400;8.684;2023-07-08T06:10:24;10.30;;;5.32;;
55224;SDS011;41091;49.400;8.684;2023-07-08T06:12:50;7.13;;;5.22;;
55224;SDS011;41091;49.400;8.684;2023-07-08T06:15:15;18.75;;;5.10;;
55224;SDS011;41091;49.400;8.684;2023-07-08T06:17:43;8.70;;;4.35;;
55224;SDS011;41091;49.400;8.684;2023-07-08T06:20:08;8.70;;;4.68;;
55224;SDS011;41091;49.400;8.684;2023-07-08T06:22:34;5.50;;;4.68;;
55224;SDS011;41091;49.400;8.684;2023-07-08T06:24:59;7.78;;;4.95;;
55224;SDS011;41091;49.400;8.684;2023-07-08T06:27:27;6.43;;;5.20;;
55224;SDS011;41091;49.400;8.684;2023-07-08T06:29:55;11.73;;;5.65;;
55224;SDS011;41091;49.400;8.684;2023-07-08T06:32:20;14.75;;;5.22;;
55224;SDS011;41091;49.400;8.684;2023-07-08T06:34:45;8.00;;;5.32;;
55224;SDS011;41091;49.400;8.684;2023-07-08T06:37:13;6.75;;;4.85;;
55224;SDS011;41091;49.400;8.684;2023-07-08T06:39:38;6.60;;;4.47;;
55224;SDS011;41091;49.400;8.684;2023-07-08T06:42:06;7.90;;;4.35;;
55224;SDS011;41091;49.400;8.684;2023-07-08T06:44:31;8.63;;;4.30;;
55224;SDS011;41091;49.400;8.684;2023-07-08T06:46:56;9.45;;;4.15;;
55224;SDS011;41091;49.400;8.684;2023-07-08T06:49:21;8.73;;;5.05;;
55224;SDS011;41091;49.400;8.684;2023-07-08T06:51:47;6.15;;;4.30;;
55224;SDS011;41091;49.400;8.684;2023-07-08T06:54:15;7.78;;;4.32;;
55224;SDS011;41091;49.400;8.684;2023-07-08T06:56:40;5.15;;;4.10;;
55224;SDS011;41091;49.400;8.684;2023-07-08T06:59:09;7.57;;;4.88;;
55224;SDS011;41091;49.400;8.684;2023-07-08T07:01:34;12.50;;;4.63;;
55224;SDS011;41091;49.400;8.684;2023-07-08T07:04:01;6.30;;;5.03;;
55224;SDS011;41091;49.400;8.684;2023-07-08T07:06:27;9.55;;;4.30;;
55224;SDS011;41091;49.400;8.684;2023-07-08T07:08:54;10.30;;;4.15;;
55224;SDS011;41091;49.400;8.684;2023-07-08T07:11:20;6.70;;;4.47;;
55224;SDS011;41091;49.400;8.684;2023-07-08T07:13:45;5.50;;;4.72;;
55224;SDS011;41091;49.400;8.684;2023-07-08T07:16:13;5.10;;;4.40;;
55224;SDS011;41091;49.400;8.684;2023-07-08T07:18:39;6.85;;;4.50;;
55224;SDS011;41091;49.400;8.684;2023-07-08T07:21:04;8.73;;;4.18;;
55224;SDS011;41091;49.400;8.684;2023-07-08T07:23:32;7.60;;;5.22;;
55224;SDS011;41091;49.400;8.684;2023-07-08T07:25:57;6.90;;;4.50;;
55224;SDS011;41091;49.400;8.684;2023-07-08T07:28:22;9.88;;;4.35;;
55224;SDS011;41091;49.400;8.684;2023-07-08T07:30:54;8.75;;;4.18;;
55224;SDS011;41091;49.400;8.684;2023-07-08T07:33:21;10.27;;;4.38;;
55224;SDS011;41091;49.400;8.684;2023-07-08T07:35:46;8.80;;;3.97;;
55224;SDS011;41091;49.400;8.684;2023-07-08T07:38:13;15.82;;;4.35;;
55224;SDS011;41091;49.400;8.684;2023-07-08T07:40:39;11.07;;;4.85;;
55224;SDS011;41091;49.400;8.684;2023-07-08T07:43:08;6.95;;;5.15;;
55224;SDS011;41091;49.400;8.684;2023-07-08T07:45:34;6.50;;;3.63;;
55224;SDS011;41091;49.400;8.684;2023-07-08T07:47:59;7.25;;;4.15;;
55224;SDS011;41091;49.400;8.684;2023-07-08T07:50:27;5.75;;;3.67;;
55224;SDS011;41091;49.400;8.684;2023-07-08T07:52:55;6.90;;;3.72;;
55224;SDS011;41091;49.400;8.684;2023-07-08T07:55:20;6.05;;;3.40;;
55224;SDS011;41091;49.400;8.684;2023-07-08T07:57:46;7.57;;;4.13;;
55224;SDS011;41091;49.400;8.684;2023-07-08T08:00:12;8.63;;;4.38;;
55224;SDS011;41091;49.400;8.684;2023-07-08T08:02:42;4.07;;;3.22;;
55224;SDS011;41091;49.400;8.684;2023-07-08T08:05:08;5.07;;;2.97;;
55224;SDS011;41091;49.400;8.684;2023-07-08T08:07:33;6.65;;;3.03;;
55224;SDS011;41091;49.400;8.684;2023-07-08T08:10:02;3.88;;;2.90;;
55224;SDS011;41091;49.400;8.684;2023-07-08T08:12:28;10.40;;;4.38;;
55224;SDS011;41091;49.400;8.684;2023-07-08T08:14:56;7.30;;;3.53;;
55224;SDS011;41091;49.400;8.684;2023-07-08T08:17:21;3.92;;;2.65;;
55224;SDS011;41091;49.400;8.684;2023-07-08T08:19:49;27.65;;;3.88;;
55224;SDS011;41091;49.400;8.684;2023-07-08T08:22:16;5.32;;;2.53;;
55224;SDS011;41091;49.400;8.684;2023-07-08T08:24:46;4.72;;;2.40;;
55224;SDS011;41091;49.400;8.684;2023-07-08T08:27:11;10.70;;;2.58;;
55224;SDS011;41091;49.400;8.684;2023-07-08T08:29:36;9.05;;;2.85;;
55224;SDS011;41091;49.400;8.684;2023-07-08T08:32:02;3.75;;;2.42;;
55224;SDS011;41091;49.400;8.684;2023-07-08T08:34:32;5.45;;;2.20;;
55224;SDS011;41091;49.400;8.684;2023-07-08T08:37:00;2.90;;;2.47;;
55224;SDS011;41091;49.400;8.684;2023-07-08T08:39:27;4.47;;;1.80;;
55224;SDS011;41091;49.400;8.684;2023-07-08T08:41:54;3.42;;;2.75;;
55224;SDS011;41091;49.400;8.684;2023-07-08T08:44:25;3.25;;;1.88;;
55224;SDS011;41091;49.400;8.684;2023-07-08T08:49:40;4.30;;;1.98;;
55224;SDS011;41091;49.400;8.684;2023-07-08T08:52:09;8.07;;;1.95;;
55224;SDS011;41091;49.400;8.684;2023-07-08T08:54:35;9.02;;;1.83;;
55224;SDS011;41091;49.400;8.684;2023-07-08T09:00:09;4.28;;;2.10;;
55224;SDS011;41091;49.400;8.684;2023-07-08T09:05:22;13.23;;;2.20;;
55224;SDS011;41091;49.400;8.684;2023-07-08T09:11:01;3.03;;;1.80;;
55224;SDS011;41091;49.400;8.684;2023-07-08T09:13:50;3.83;;;2.08;;
55224;SDS011;41091;49.400;8.684;2023-07-08T09:21:24;3.07;;;2.27;;
55224;SDS011;41091;49.400;8.684;2023-07-08T09:23:53;10.02;;;2.38;;
55224;SDS011;41091;49.400;8.684;2023-07-08T09:26:23;6.60;;;2.17;;
55224;SDS011;41091;49.400;8.684;2023-07-08T09:28:49;6.90;;;2.15;;
55224;SDS011;41091;49.400;8.684;2023-07-08T09:33:46;7.45;;;2.78;;
55224;SDS011;41091;49.400;8.684;2023-07-08T09:36:17;3.92;;;2.35;;
55224;SDS011;41091;49.400;8.684;2023-07-08T09:38:47;7.70;;;2.22;;
55224;SDS011;41091;49.400;8.684;2023-07-08T09:41:13;3.88;;;2.20;;
55224;SDS011;41091;49.400;8.684;2023-07-08T09:43:41;4.03;;;2.38;;
55224;SDS011;41091;49.400;8.684;2023-07-08T09:46:08;4.45;;;2.72;;
55224;SDS011;41091;49.400;8.684;2023-07-08T09:48:42;5.53;;;2.08;;
55224;SDS011;41091;49.400;8.684;2023-07-08T09:51:07;4.75;;;2.42;;
55224;SDS011;41091;49.400;8.684;2023-07-08T09:53:33;7.40;;;3.15;;
55224;SDS011;41091;49.400;8.684;2023-07-08T09:55:59;3.42;;;2.47;;
55224;SDS011;41091;49.400;8.684;2023-07-08T09:58:33;13.20;;;2.63;;
55224;SDS011;41091;49.400;8.684;2023-07-08T10:01:08;4.90;;;2.40;;
55224;SDS011;41091;49.400;8.684;2023-07-08T10:03:35;5.97;;;2.28;;
55224;SDS011;41091;49.400;8.684;2023-07-08T10:06:10;4.40;;;3.05;;
55224;SDS011;41091;49.400;8.684;2023-07-08T10:08:41;6.15;;;2.72;;
55224;SDS011;41091;49.400;8.684;2023-07-08T10:13:40;4.95;;;3.20;;
55224;SDS011;41091;49.400;8.684;2023-07-08T10:16:20;5.07;;;3.27;;
55224;SDS011;41091;49.400;8.684;2023-07-08T10:18:52;8.00;;;3.03;;
55224;SDS011;41091;49.400;8.684;2023-07-08T10:26:46;4.40;;;3.33;;
55224;SDS011;41091;49.400;8.684;2023-07-08T10:29:21;6.00;;;3.13;;
55224;SDS011;41091;49.400;8.684;2023-07-08T10:32:43;2.72;;;2.53;;
55224;SDS011;41091;49.400;8.684;2023-07-08T10:40:06;9.43;;;2.63;;
55224;SDS011;41091;49.400;8.684;2023-07-08T10:45:38;10.27;;;3.10;;
55224;SDS011;41091;49.400;8.684;2023-07-08T10:51:09;11.52;;;3.10;;
55224;SDS011;41091;49.400;8.684;2023-07-08T11:10:23;4.43;;;2.97;;
55224;SDS011;41091;49.400;8.684;2023-07-08T11:12:54;6.90;;;3.42;;
55224;SDS011;41091;49.400;8.684;2023-07-08T11:15:26;10.30;;;4.43;;
55224;SDS011;41091;49.400;8.684;2023-07-08T11:17:57;11.48;;;3.28;;
55224;SDS011;41091;49.400;8.684;2023-07-08T11:23:03;3.65;;;3.30;;
55224;SDS011;41091;49.400;8.684;2023-07-08T11:25:31;5.35;;;2.75;;
55224;SDS011;41091;49.400;8.684;2023-07-08T11:27:57;12.20;;;3.28;;
55224;SDS011;41091;49.400;8.684;2023-07-08T11:30:25;10.43;;;3.28;;
55224;SDS011;41091;49.400;8.684;2023-07-08T11:32:56;9.43;;;2.92;;
55224;SDS011;41091;49.400;8.684;2023-07-08T11:38:13;6.55;;;3.92;;
55224;SDS011;41091;49.400;8.684;2023-07-08T11:40:57;9.90;;;3.97;;
55224;SDS011;41091;49.400;8.684;2023-07-08T11:43:48;7.50;;;3.50;;
55224;SDS011;41091;49.400;8.684;2023-07-08T11:46:25;7.05;;;2.97;;
55224;SDS011;41091;49.400;8.684;2023-07-08T11:48:53;13.27;;;3.35;;
55224;SDS011;41091;49.400;8.684;2023-07-08T11:51:30;12.40;;;4.15;;
55224;SDS011;41091;49.400;8.684;2023-07-08T11:56:28;11.57;;;3.90;;
55224;SDS011;41091;49.400;8.684;2023-07-08T11:59:17;12.95;;;4.10;;
55224;SDS011;41091;49.400;8.684;2023-07-08T12:04:29;4.53;;;3.30;;
55224;SDS011;41091;49.400;8.684;2023-07-08T12:09:39;11.38;;;3.97;;
55224;SDS011;41091;49.400;8.684;2023-07-08T12:12:24;7.55;;;2.72;;
55224;SDS011;41091;49.400;8.684;2023-07-08T12:14:53;3.97;;;3.20;;
55224;SDS011;41091;49.400;8.684;2023-07-08T12:17:26;6.20;;;3.40;;
55224;SDS011;41091;49.400;8.684;2023-07-08T12:19:57;7.75;;;3.38;;
55224;SDS011;41091;49.400;8.684;2023-07-08T12:22:25;4.43;;;2.53;;
55224;SDS011;41091;49.400;8.684;2023-07-08T12:24:50;4.55;;;3.33;;
55224;SDS011;41091;49.400;8.684;2023-07-08T12:27:20;9.15;;;3.60;;
55224;SDS011;41091;49.400;8.684;2023-07-08T12:29:46;6.65;;;3.40;;
55224;SDS011;41091;49.400;8.684;2023-07-08T12:32:11;6.30;;;3.25;;
55224;SDS011;41091;49.400;8.684;2023-07-08T12:34:38;5.35;;;3.80;;
55224;SDS011;41091;49.400;8.684;2023-07-08T12:37:07;12.00;;;3.72;;
55224;SDS011;41091;49.400;8.684;2023-07-08T12:39:36;4.40;;;2.53;;
55224;SDS011;41091;49.400;8.684;2023-07-08T12:42:01;7.97;;;4.05;;
55224;SDS011;41091;49.400;8.684;2023-07-08T12:44:29;8.20;;;3.40;;
55224;SDS011;41091;49.400;8.684;2023-07-08T12:47:01;7.00;;;3.60;;
55224;SDS011;41091;49.400;8.684;2023-07-08T12:49:27;7.63;;;3.28;;
55224;SDS011;41091;49.400;8.684;2023-07-08T12:51:55;4.05;;;2.88;;
55224;SDS011;41091;49.400;8.684;2023-07-08T12:54:23;6.05;;;2.90;;
55224;SDS011;41091;49.400;8.684;2023-07-08T12:56:48;4.03;;;3.05;;
55224;SDS011;41091;49.400;8.684;2023-07-08T12:59:17;6.32;;;3.63;;
55224;SDS011;41091;49.400;8.684;2023-07-08T13:01:46;14.70;;;3.40;;
55224;SDS011;41091;49.400;8.684;2023-07-08T13:04:12;9.15;;;3.30;;
55224;SDS011;41091;49.400;8.684;2023-07-08T13:06:38;6.55;;;3.00;;
55224;SDS011;41091;49.400;8.684;2023-07-08T13:11:32;6.00;;;3.28;;
55224;SDS011;41091;49.400;8.684;2023-07-08T13:13:58;3.85;;;2.90;;
55224;SDS011;41091;49.400;8.684;2023-07-08T13:16:28;6.40;;;3.65;;
55224;SDS011;41091;49.400;8.684;2023-07-08T13:18:56;7.63;;;3.40;;
55224;SDS011;41091;49.400;8.684;2023-07-08T13:21:21;6.97;;;3.78;;
55224;SDS011;41091;49.400;8.684;2023-07-08T13:23:52;4.07;;;2.88;;
55224;SDS011;41091;49.400;8.684;2023-07-08T13:26:22;7.28;;;3.28;;
55224;SDS011;41091;49.400;8.684;2023-07-08T13:28:48;11.30;;;2.90;;
55224;SDS011;41091;49.400;8.684;2023-07-08T13:31:15;7.97;;;3.35;;
55224;SDS011;41091;49.400;8.684;2023-07-08T13:33:46;5.40;;;2.67;;
55224;SDS011;41091;49.400;8.684;2023-07-08T13:36:14;5.10;;;3.28;;
55224;SDS011;41091;49.400;8.684;2023-07-08T13:38:47;5.22;;;2.97;;
55224;SDS011;41091;49.400;8.684;2023-07-08T13:41:17;5.50;;;3.20;;
55224;SDS011;41091;49.400;8.684;2023-07-08T13:43:45;16.98;;;11.00;;
55224;SDS011;41091;49.400;8.684;2023-07-08T13:49:01;8.45;;;2.83;;
55224;SDS011;41091;49.400;8.684;2023-07-08T13:51:47;7.57;;;2.30;;
55224;SDS011;41091;49.400;8.684;2023-07-08T13:54:23;6.78;;;2.80;;
55224;SDS011;41091;49.400;8.684;2023-07-08T13:56:51;6.18;;;2.20;;
55224;SDS011;41091;49.400;8.684;2023-07-08T13:59:25;9.07;;;2.80;;
55224;SDS011;41091;49.400;8.684;2023-07-08T14:01:52;10.77;;;2.50;;
55224;SDS011;41091;49.400;8.684;2023-07-08T14:04:27;4.78;;;3.10;;
55224;SDS011;41091;49.400;8.684;2023-07-08T14:06:55;7.68;;;2.90;;
55224;SDS011;41091;49.400;8.684;2023-07-08T14:09:21;3.35;;;2.35;;
55224;SDS011;41091;49.400;8.684;2023-07-08T14:11:50;13.10;;;2.63;;
55224;SDS011;41091;49.400;8.684;2023-07-08T14:14:17;5.72;;;2.75;;
55224;SDS011;41091;49.400;8.684;2023-07-08T14:16:45;7.25;;;2.53;;
55224;SDS011;41091;49.400;8.684;2023-07-08T14:19:14;4.63;;;2.43;;
55224;SDS011;41091;49.400;8.684;2023-07-08T14:21:41;5.00;;;2.78;;
55224;SDS011;41091;49.400;8.684;2023-07-08T14:24:11;4.95;;;2.20;;
55224;SDS011;41091;49.400;8.684;2023-07-08T14:26:38;7.32;;;3.15;;
55224;SDS011;41091;49.400;8.684;2023-07-08T14:29:07;9.75;;;2.30;;
55224;SDS011;41091;49.400;8.684;2023-07-08T14:31:32;5.70;;;2.45;;
55224;SDS011;41091;49.400;8.684;2023-07-08T14:34:00;6.18;;;2.30;;
55224;SDS011;41091;49.400;8.684;2023-07-08T14:36:29;4.45;;;2.10;;
55224;SDS011;41091;49.400;8.684;2023-07-08T14:38:57;4.25;;;2.28;;
55224;SDS011;41091;49.400;8.684;2023-07-08T14:41:25;10.43;;;2.00;;
55224;SDS011;41091;49.400;8.684;2023-07-08T14:43:53;3.90;;;2.33;;
55224;SDS011;41091;49.400;8.684;2023-07-08T14:46:19;6.53;;;2.28;;
55224;SDS011;41091;49.400;8.684;2023-07-08T14:48:47;5.43;;;2.05;;
55224;SDS011;41091;49.400;8.684;2023-07-08T14:51:17;4.28;;;2.17;;
55224;SDS011;41091;49.400;8.684;2023-07-08T14:53:42;2.38;;;1.60;;
55224;SDS011;41091;49.400;8.684;2023-07-08T14:56:11;3.22;;;2.05;;
55224;SDS011;41091;49.400;8.684;2023-07-08T14:58:39;7.20;;;2.17;;
55224;SDS011;41091;49.400;8.684;2023-07-08T15:01:14;3.60;;;2.35;;
55224;SDS011;41091;49.400;8.684;2023-07-08T15:03:42;9.98;;;1.95;;
55224;SDS011;41091;49.400;8.684;2023-07-08T15:06:09;3.28;;;2.13;;
55224;SDS011;41091;49.400;8.684;2023-07-08T15:08:35;7.53;;;2.08;;
55224;SDS011;41091;49.400;8.684;2023-07-08T15:11:00;4.25;;;1.92;;
55224;SDS011;41091;49.400;8.684;2023-07-08T15:13:26;4.13;;;2.22;;
55224;SDS011;41091;49.400;8.684;2023-07-08T15:15:57;2.10;;;1.90;;
55224;SDS011;41091;49.400;8.684;2023-07-08T15:18:23;4.25;;;2.53;;
55224;SDS011;41091;49.400;8.684;2023-07-08T15:20:48;4.25;;;2.08;;
55224;SDS011;41091;49.400;8.684;2023-07-08T15:23:14;3.03;;;1.85;;
55224;SDS011;41091;49.400;8.684;2023-07-08T15:25:41;9.50;;;2.00;;
55224;SDS011;41091;49.400;8.684;2023-07-08T15:28:19;4.18;;;2.40;;
55224;SDS011;41091;49.400;8.684;2023-07-08T15:30:47;3.33;;;1.90;;
55224;SDS011;41091;49.400;8.684;2023-07-08T15:33:15;6.45;;;2.50;;
55224;SDS011;41091;49.400;8.684;2023-07-08T15:35:41;5.32;;;1.80;;
55224;SDS011;41091;49.400;8.684;2023-07-08T15:38:08;3.92;;;2.28;;
55224;SDS011;41091;49.400;8.684;2023-07-08T15:40:34;4.07;;;2.10;;
55224;SDS011;41091;49.400;8.684;2023-07-08T15:43:00;3.35;;;2.00;;
55224;SDS011;41091;49.400;8.684;2023-07-08T15:45:35;6.97;;;2.42;;
55224;SDS011;41091;49.400;8.684;2023-07-08T15:48:05;2.58;;;1.98;;
55224;SDS011;41091;49.400;8.684;2023-07-08T15:50:30;1.98;;;1.73;;
55224;SDS011;41091;49.400;8.684;2023-07-08T15:52:55;2.40;;;2.00;;
55224;SDS011;41091;49.400;8.684;2023-07-08T15:55:30;4.82;;;2.17;;
55224;SDS011;41091;49.400;8.684;2023-07-08T15:58:02;2.33;;;2.10;;
55224;SDS011;41091;49.400;8.684;2023-07-08T16:00:30;1.48;;;1.38;;
55224;SDS011;41091;49.400;8.684;2023-07-08T16:02:58;5.65;;;1.88;;
55224;SDS011;41091;49.400;8.684;2023-07-08T16:05:25;1.95;;;1.50;;
55224;SDS011;41091;49.400;8.684;2023-07-08T16:07:51;4.57;;;2.22;;
55224;SDS011;41091;49.400;8.684;2023-07-08T16:10:20;2.65;;;1.55;;
55224;SDS011;41091;49.400;8.684;2023-07-08T16:12:46;4.53;;;2.20;;